sensor_id;sensor_type;location;lat;lon;timestamp;P1;durP1;ratioP1;P2;durP2;ratioP2
51489;SDS011;57752;53.574;9.736;2023-10-13T00:01:50;18.38;;;6.05;;
51489;SDS011;57752;53.574;9.736;2023-10-13T00:06:56;24.83;;;6.40;;
51489;SDS011;57752;53.574;9.736;2023-10-13T00:12:01;20.55;;;6.90;;
51489;SDS011;57752;53.574;9.736;2023-10-13T00:17:04;20.27;;;7.53;;
51489;SDS011;57752;53.574;9.736;2023-10-13T00:22:05;23.38;;;7.82;;
51489;SDS011;57752;53.574;9.736;2023-10-13T00:27:13;25.75;;;8.55;;
51489;SDS011;57752;53.574;9.736;2023-10-13T00:32:32;26.05;;;8.05;;
51489;SDS011;57752;53.574;9.736;2023-10-13T00:37:32;28.10;;;8.50;;
51489;SDS011;57752;53.574;9.736;2023-10-13T00:42:44;25.73;;;8.95;;
51489;SDS011;57752;53.574;9.736;2023-10-13T00:47:51;28.98;;;9.18;;
51489;SDS011;57752;53.574;9.736;2023-10-13T00:52:56;26.92;;;10.10;;
51489;SDS011;57752;53.574;9.736;2023-10-13T00:57:56;31.08;;;9.82;;
51489;SDS011;57752;53.574;9.736;2023-10-13T01:02:57;27.35;;;10.13;;
51489;SDS011;57752;53.574;9.736;2023-10-13T01:08:05;30.77;;;10.10;;
51489;SDS011;57752;53.574;9.736;2023-10-13T01:13:10;28.63;;;11.43;;
51489;SDS011;57752;53.574;9.736;2023-10-13T01:18:11;29.20;;;10.88;;
51489;SDS011;57752;53.574;9.736;2023-10-13T01:23:12;31.67;;;10.95;;
51489;SDS011;57752;53.574;9.736;2023-10-13T01:28:18;31.25;;;11.50;;
51489;SDS011;57752;53.574;9.736;2023-10-13T01:33:19;34.38;;;12.13;;
51489;SDS011;57752;53.574;9.736;2023-10-13T01:38:26;38.15;;;13.75;;
51489;SDS011;57752;53.574;9.736;2023-10-13T01:43:27;38.17;;;13.18;;
51489;SDS011;57752;53.574;9.736;2023-10-13T01:48:27;35.42;;;13.32;;
51489;SDS011;57752;53.574;9.736;2023-10-13T01:53:32;43.35;;;15.02;;
51489;SDS011;57752;53.574;9.736;2023-10-13T01:58:32;45.05;;;15.25;;
51489;SDS011;57752;53.574;9.736;2023-10-13T02:03:34;41.83;;;15.90;;
51489;SDS011;57752;53.574;9.736;2023-10-13T02:08:36;58.92;;;19.52;;
51489;SDS011;57752;53.574;9.736;2023-10-13T02:13:40;55.60;;;18.77;;
51489;SDS011;57752;53.574;9.736;2023-10-13T02:18:48;60.05;;;20.30;;
51489;SDS011;57752;53.574;9.736;2023-10-13T02:23:51;70.25;;;22.67;;
51489;SDS011;57752;53.574;9.736;2023-10-13T02:29:01;63.67;;;22.67;;
51489;SDS011;57752;53.574;9.736;2023-10-13T02:34:07;79.57;;;23.60;;
51489;SDS011;57752;53.574;9.736;2023-10-13T02:39:08;71.25;;;23.52;;
51489;SDS011;57752;53.574;9.736;2023-10-13T02:44:08;79.55;;;25.80;;
51489;SDS011;57752;53.574;9.736;2023-10-13T02:49:10;77.13;;;26.00;;
51489;SDS011;57752;53.574;9.736;2023-10-13T02:54:10;83.17;;;24.40;;
51489;SDS011;57752;53.574;9.736;2023-10-13T02:59:11;82.20;;;25.60;;
51489;SDS011;57752;53.574;9.736;2023-10-13T03:04:12;84.53;;;26.38;;
51489;SDS011;57752;53.574;9.736;2023-10-13T03:09:12;72.93;;;23.73;;
51489;SDS011;57752;53.574;9.736;2023-10-13T03:14:19;83.85;;;24.38;;
51489;SDS011;57752;53.574;9.736;2023-10-13T03:24:37;71.47;;;22.70;;
51489;SDS011;57752;53.574;9.736;2023-10-13T03:29:42;69.95;;;22.95;;
51489;SDS011;57752;53.574;9.736;2023-10-13T03:34:43;69.50;;;23.38;;
51489;SDS011;57752;53.574;9.736;2023-10-13T03:39:52;70.90;;;21.83;;
51489;SDS011;57752;53.574;9.736;2023-10-13T03:44:52;63.22;;;20.42;;
51489;SDS011;57752;53.574;9.736;2023-10-13T03:49:55;54.10;;;18.25;;
51489;SDS011;57752;53.574;9.736;2023-10-13T03:55:15;52.95;;;17.90;;
51489;SDS011;57752;53.574;9.736;2023-10-13T04:00:18;44.30;;;17.35;;
51489;SDS011;57752;53.574;9.736;2023-10-13T04:05:25;49.50;;;17.48;;
51489;SDS011;57752;53.574;9.736;2023-10-13T04:10:55;49.47;;;17.63;;
51489;SDS011;57752;53.574;9.736;2023-10-13T04:15:55;51.13;;;18.95;;
51489;SDS011;57752;53.574;9.736;2023-10-13T04:21:14;56.08;;;21.30;;
51489;SDS011;57752;53.574;9.736;2023-10-13T04:26:39;59.70;;;22.13;;
51489;SDS011;57752;53.574;9.736;2023-10-13T04:31:59;64.43;;;23.02;;
51489;SDS011;57752;53.574;9.736;2023-10-13T04:37:00;75.35;;;26.42;;
51489;SDS011;57752;53.574;9.736;2023-10-13T04:42:20;77.53;;;27.17;;
51489;SDS011;57752;53.574;9.736;2023-10-13T04:47:39;89.03;;;29.50;;
51489;SDS011;57752;53.574;9.736;2023-10-13T04:52:47;99.53;;;32.92;;
51489;SDS011;57752;53.574;9.736;2023-10-13T04:58:03;100.68;;;34.40;;
51489;SDS011;57752;53.574;9.736;2023-10-13T05:03:35;114.72;;;36.80;;
51489;SDS011;57752;53.574;9.736;2023-10-13T05:08:54;128.60;;;38.83;;
51489;SDS011;57752;53.574;9.736;2023-10-13T05:14:13;110.30;;;38.63;;
51489;SDS011;57752;53.574;9.736;2023-10-13T05:19:32;120.32;;;37.67;;
51489;SDS011;57752;53.574;9.736;2023-10-13T05:24:51;136.73;;;40.83;;
51489;SDS011;57752;53.574;9.736;2023-10-13T05:30:10;105.68;;;36.75;;
51489;SDS011;57752;53.574;9.736;2023-10-13T05:35:30;119.13;;;37.35;;
51489;SDS011;57752;53.574;9.736;2023-10-13T05:40:53;123.03;;;36.95;;
51489;SDS011;57752;53.574;9.736;2023-10-13T05:46:12;109.70;;;34.67;;
51489;SDS011;57752;53.574;9.736;2023-10-13T05:51:27;120.07;;;36.97;;
51489;SDS011;57752;53.574;9.736;2023-10-13T06:02:05;106.53;;;37.53;;
51489;SDS011;57752;53.574;9.736;2023-10-13T06:07:24;109.47;;;36.92;;
51489;SDS011;57752;53.574;9.736;2023-10-13T06:12:43;101.68;;;35.95;;
51489;SDS011;57752;53.574;9.736;2023-10-13T06:18:02;103.28;;;35.72;;
51489;SDS011;57752;53.574;9.736;2023-10-13T06:23:21;112.05;;;36.75;;
51489;SDS011;57752;53.574;9.736;2023-10-13T06:28:40;95.18;;;35.35;;
51489;SDS011;57752;53.574;9.736;2023-10-13T06:33:40;103.57;;;36.25;;
51489;SDS011;57752;53.574;9.736;2023-10-13T06:38:47;105.80;;;37.00;;
51489;SDS011;57752;53.574;9.736;2023-10-13T06:43:55;93.88;;;35.60;;
51489;SDS011;57752;53.574;9.736;2023-10-13T06:49:01;104.22;;;39.35;;
51489;SDS011;57752;53.574;9.736;2023-10-13T06:54:02;102.97;;;38.67;;
51489;SDS011;57752;53.574;9.736;2023-10-13T06:59:02;109.63;;;41.08;;
51489;SDS011;57752;53.574;9.736;2023-10-13T07:04:07;105.78;;;38.90;;
51489;SDS011;57752;53.574;9.736;2023-10-13T07:09:13;110.75;;;40.35;;
51489;SDS011;57752;53.574;9.736;2023-10-13T07:14:33;99.70;;;38.38;;
51489;SDS011;57752;53.574;9.736;2023-10-13T07:19:33;89.30;;;37.92;;
51489;SDS011;57752;53.574;9.736;2023-10-13T07:24:34;104.72;;;39.53;;
51489;SDS011;57752;53.574;9.736;2023-10-13T07:29:39;93.43;;;38.08;;
51489;SDS011;57752;53.574;9.736;2023-10-13T07:34:42;98.03;;;37.67;;
51489;SDS011;57752;53.574;9.736;2023-10-13T07:39:42;95.70;;;34.67;;
51489;SDS011;57752;53.574;9.736;2023-10-13T07:44:42;88.68;;;34.20;;
51489;SDS011;57752;53.574;9.736;2023-10-13T07:49:48;78.43;;;33.05;;
51489;SDS011;57752;53.574;9.736;2023-10-13T07:54:50;115.60;;;35.10;;
51489;SDS011;57752;53.574;9.736;2023-10-13T08:00:11;67.18;;;28.33;;
51489;SDS011;57752;53.574;9.736;2023-10-13T08:05:12;68.00;;;28.83;;
51489;SDS011;57752;53.574;9.736;2023-10-13T08:10:14;56.38;;;25.83;;
51489;SDS011;57752;53.574;9.736;2023-10-13T08:15:16;52.72;;;24.30;;
51489;SDS011;57752;53.574;9.736;2023-10-13T08:20:31;52.35;;;22.27;;
51489;SDS011;57752;53.574;9.736;2023-10-13T08:25:38;60.42;;;24.60;;
51489;SDS011;57752;53.574;9.736;2023-10-13T08:31:02;55.58;;;25.15;;
51489;SDS011;57752;53.574;9.736;2023-10-13T08:36:07;54.70;;;24.30;;
51489;SDS011;57752;53.574;9.736;2023-10-13T08:41:26;56.55;;;24.40;;
51489;SDS011;57752;53.574;9.736;2023-10-13T08:46:30;44.00;;;20.90;;
51489;SDS011;57752;53.574;9.736;2023-10-13T08:51:59;43.13;;;18.35;;
51489;SDS011;57752;53.574;9.736;2023-10-13T08:57:06;41.38;;;17.67;;
51489;SDS011;57752;53.574;9.736;2023-10-13T09:02:25;36.90;;;17.17;;
51489;SDS011;57752;53.574;9.736;2023-10-13T09:07:44;37.53;;;18.00;;
51489;SDS011;57752;53.574;9.736;2023-10-13T09:12:53;40.55;;;18.60;;
51489;SDS011;57752;53.574;9.736;2023-10-13T09:18:03;34.40;;;17.17;;
51489;SDS011;57752;53.574;9.736;2023-10-13T09:23:15;34.13;;;16.70;;
51489;SDS011;57752;53.574;9.736;2023-10-13T09:28:27;30.60;;;15.45;;
51489;SDS011;57752;53.574;9.736;2023-10-13T09:33:28;28.65;;;15.45;;
51489;SDS011;57752;53.574;9.736;2023-10-13T09:38:50;27.50;;;13.23;;
51489;SDS011;57752;53.574;9.736;2023-10-13T09:44:10;25.67;;;13.48;;
51489;SDS011;57752;53.574;9.736;2023-10-13T09:49:11;22.23;;;11.98;;
51489;SDS011;57752;53.574;9.736;2023-10-13T09:54:20;23.05;;;11.10;;
51489;SDS011;57752;53.574;9.736;2023-10-13T10:04:35;23.65;;;11.18;;
51489;SDS011;57752;53.574;9.736;2023-10-13T10:09:44;19.98;;;10.55;;
51489;SDS011;57752;53.574;9.736;2023-10-13T10:19:58;23.73;;;10.23;;
51489;SDS011;57752;53.574;9.736;2023-10-13T10:25:05;26.30;;;10.47;;
51489;SDS011;57752;53.574;9.736;2023-10-13T10:30:24;20.55;;;10.18;;
51489;SDS011;57752;53.574;9.736;2023-10-13T10:35:25;21.65;;;9.30;;
51489;SDS011;57752;53.574;9.736;2023-10-13T10:40:32;20.55;;;10.27;;
51489;SDS011;57752;53.574;9.736;2023-10-13T10:45:47;18.55;;;9.52;;
51489;SDS011;57752;53.574;9.736;2023-10-13T10:50:56;19.33;;;9.13;;
51489;SDS011;57752;53.574;9.736;2023-10-13T10:56:03;23.13;;;9.43;;
51489;SDS011;57752;53.574;9.736;2023-10-13T11:01:05;19.05;;;9.80;;
51489;SDS011;57752;53.574;9.736;2023-10-13T11:06:13;18.85;;;9.75;;
51489;SDS011;57752;53.574;9.736;2023-10-13T11:11:27;19.58;;;9.15;;
51489;SDS011;57752;53.574;9.736;2023-10-13T11:26:37;20.00;;;9.75;;
51489;SDS011;57752;53.574;9.736;2023-10-13T11:31:50;20.15;;;10.10;;
51489;SDS011;57752;53.574;9.736;2023-10-13T11:36:59;20.45;;;9.68;;
51489;SDS011;57752;53.574;9.736;2023-10-13T11:42:20;20.40;;;9.73;;
51489;SDS011;57752;53.574;9.736;2023-10-13T11:47:20;17.73;;;8.53;;
51489;SDS011;57752;53.574;9.736;2023-10-13T11:52:47;18.50;;;8.68;;
51489;SDS011;57752;53.574;9.736;2023-10-13T11:57:47;23.30;;;8.80;;
51489;SDS011;57752;53.574;9.736;2023-10-13T12:02:48;18.05;;;8.68;;
51489;SDS011;57752;53.574;9.736;2023-10-13T12:08:06;16.73;;;8.10;;
51489;SDS011;57752;53.574;9.736;2023-10-13T12:13:19;18.35;;;7.97;;
51489;SDS011;57752;53.574;9.736;2023-10-13T12:18:19;18.23;;;7.55;;
51489;SDS011;57752;53.574;9.736;2023-10-13T12:23:20;20.40;;;7.68;;
51489;SDS011;57752;53.574;9.736;2023-10-13T12:28:31;20.55;;;7.72;;
51489;SDS011;57752;53.574;9.736;2023-10-13T12:33:37;17.27;;;7.70;;
51489;SDS011;57752;53.574;9.736;2023-10-13T12:38:38;18.33;;;7.80;;
51489;SDS011;57752;53.574;9.736;2023-10-13T12:43:47;20.75;;;7.13;;
51489;SDS011;57752;53.574;9.736;2023-10-13T12:49:05;18.80;;;7.15;;
51489;SDS011;57752;53.574;9.736;2023-10-13T12:54:25;19.85;;;7.35;;
51489;SDS011;57752;53.574;9.736;2023-10-13T12:59:35;16.88;;;7.10;;
51489;SDS011;57752;53.574;9.736;2023-10-13T13:04:35;19.97;;;7.73;;
51489;SDS011;57752;53.574;9.736;2023-10-13T13:09:38;18.17;;;7.50;;
51489;SDS011;57752;53.574;9.736;2023-10-13T13:14:38;19.02;;;7.40;;
51489;SDS011;57752;53.574;9.736;2023-10-13T13:19:41;18.67;;;7.72;;
51489;SDS011;57752;53.574;9.736;2023-10-13T13:24:42;20.15;;;7.57;;
51489;SDS011;57752;53.574;9.736;2023-10-13T13:29:45;17.88;;;6.65;;
51489;SDS011;57752;53.574;9.736;2023-10-13T13:34:45;17.23;;;7.07;;
51489;SDS011;57752;53.574;9.736;2023-10-13T13:39:54;17.75;;;7.10;;
51489;SDS011;57752;53.574;9.736;2023-10-13T13:44:54;16.65;;;7.50;;
51489;SDS011;57752;53.574;9.736;2023-10-13T13:49:58;19.05;;;7.32;;
51489;SDS011;57752;53.574;9.736;2023-10-13T13:54:59;21.53;;;7.30;;
51489;SDS011;57752;53.574;9.736;2023-10-13T14:00:02;18.50;;;7.82;;
51489;SDS011;57752;53.574;9.736;2023-10-13T14:05:06;19.35;;;7.50;;
51489;SDS011;57752;53.574;9.736;2023-10-13T14:10:16;19.63;;;7.93;;
51489;SDS011;57752;53.574;9.736;2023-10-13T14:15:31;19.08;;;7.75;;
51489;SDS011;57752;53.574;9.736;2023-10-13T14:20:32;19.70;;;7.93;;
51489;SDS011;57752;53.574;9.736;2023-10-13T14:25:39;21.48;;;8.18;;
51489;SDS011;57752;53.574;9.736;2023-10-13T14:30:44;21.85;;;8.07;;
51489;SDS011;57752;53.574;9.736;2023-10-13T14:35:45;19.73;;;8.45;;
51489;SDS011;57752;53.574;9.736;2023-10-13T14:40:47;18.35;;;7.85;;
51489;SDS011;57752;53.574;9.736;2023-10-13T14:45:48;19.15;;;7.78;;
51489;SDS011;57752;53.574;9.736;2023-10-13T14:50:49;23.13;;;7.80;;
51489;SDS011;57752;53.574;9.736;2023-10-13T14:55:49;20.05;;;8.13;;
51489;SDS011;57752;53.574;9.736;2023-10-13T15:00:51;20.00;;;7.70;;
51489;SDS011;57752;53.574;9.736;2023-10-13T15:05:52;19.35;;;7.50;;
51489;SDS011;57752;53.574;9.736;2023-10-13T15:10:55;23.23;;;8.05;;
51489;SDS011;57752;53.574;9.736;2023-10-13T15:15:55;20.60;;;7.97;;
51489;SDS011;57752;53.574;9.736;2023-10-13T15:20:55;18.88;;;8.40;;
51489;SDS011;57752;53.574;9.736;2023-10-13T15:25:56;18.35;;;8.40;;
51489;SDS011;57752;53.574;9.736;2023-10-13T15:30:58;18.67;;;8.03;;
51489;SDS011;57752;53.574;9.736;2023-10-13T15:36:10;20.90;;;8.27;;
51489;SDS011;57752;53.574;9.736;2023-10-13T15:41:10;18.83;;;7.90;;
51489;SDS011;57752;53.574;9.736;2023-10-13T15:46:15;19.45;;;7.75;;
51489;SDS011;57752;53.574;9.736;2023-10-13T15:51:15;22.67;;;8.40;;
51489;SDS011;57752;53.574;9.736;2023-10-13T15:56:16;20.88;;;7.93;;
51489;SDS011;57752;53.574;9.736;2023-10-13T16:01:17;18.73;;;8.18;;
51489;SDS011;57752;53.574;9.736;2023-10-13T16:06:19;18.85;;;8.00;;
51489;SDS011;57752;53.574;9.736;2023-10-13T16:11:19;22.88;;;7.95;;
51489;SDS011;57752;53.574;9.736;2023-10-13T16:16:22;19.83;;;7.75;;
51489;SDS011;57752;53.574;9.736;2023-10-13T16:21:22;21.02;;;7.65;;
51489;SDS011;57752;53.574;9.736;2023-10-13T16:26:23;19.27;;;7.00;;
51489;SDS011;57752;53.574;9.736;2023-10-13T16:31:24;20.13;;;7.13;;
51489;SDS011;57752;53.574;9.736;2023-10-13T16:36:28;23.83;;;7.05;;
51489;SDS011;57752;53.574;9.736;2023-10-13T16:41:28;20.90;;;7.88;;
51489;SDS011;57752;53.574;9.736;2023-10-13T16:46:28;19.10;;;7.18;;
51489;SDS011;57752;53.574;9.736;2023-10-13T16:51:28;19.80;;;7.32;;
51489;SDS011;57752;53.574;9.736;2023-10-13T16:56:29;19.42;;;8.25;;
51489;SDS011;57752;53.574;9.736;2023-10-13T17:01:29;23.20;;;7.50;;
51489;SDS011;57752;53.574;9.736;2023-10-13T17:06:30;20.08;;;7.85;;
51489;SDS011;57752;53.574;9.736;2023-10-13T17:11:30;21.23;;;7.53;;
51489;SDS011;57752;53.574;9.736;2023-10-13T17:16:30;19.52;;;8.00;;
51489;SDS011;57752;53.574;9.736;2023-10-13T17:21:31;22.63;;;8.10;;
51489;SDS011;57752;53.574;9.736;2023-10-13T17:26:32;21.98;;;7.72;;
51489;SDS011;57752;53.574;9.736;2023-10-13T17:31:32;19.67;;;7.40;;
51489;SDS011;57752;53.574;9.736;2023-10-13T17:36:32;17.20;;;6.75;;
51489;SDS011;57752;53.574;9.736;2023-10-13T17:41:32;19.02;;;6.32;;
51489;SDS011;57752;53.574;9.736;2023-10-13T17:46:32;17.88;;;6.45;;
51489;SDS011;57752;53.574;9.736;2023-10-13T17:51:33;18.58;;;5.93;;
51489;SDS011;57752;53.574;9.736;2023-10-13T17:56:33;16.90;;;5.55;;
51489;SDS011;57752;53.574;9.736;2023-10-13T18:01:33;13.93;;;5.07;;
51489;SDS011;57752;53.574;9.736;2023-10-13T18:06:33;15.02;;;4.95;;
51489;SDS011;57752;53.574;9.736;2023-10-13T18:11:37;16.58;;;5.25;;
51489;SDS011;57752;53.574;9.736;2023-10-13T18:16:37;14.82;;;4.75;;
51489;SDS011;57752;53.574;9.736;2023-10-13T18:21:37;14.73;;;4.60;;
51489;SDS011;57752;53.574;9.736;2023-10-13T18:26:38;15.52;;;4.55;;
51489;SDS011;57752;53.574;9.736;2023-10-13T18:31:38;14.05;;;4.90;;
51489;SDS011;57752;53.574;9.736;2023-10-13T18:36:38;15.65;;;4.63;;
51489;SDS011;57752;53.574;9.736;2023-10-13T18:41:38;17.27;;;5.23;;
51489;SDS011;57752;53.574;9.736;2023-10-13T18:46:38;17.00;;;5.00;;
51489;SDS011;57752;53.574;9.736;2023-10-13T18:51:40;15.85;;;5.68;;
51489;SDS011;57752;53.574;9.736;2023-10-13T19:01:42;15.63;;;5.10;;
51489;SDS011;57752;53.574;9.736;2023-10-13T19:06:42;16.95;;;5.80;;
51489;SDS011;57752;53.574;9.736;2023-10-13T19:11:43;16.13;;;5.72;;
51489;SDS011;57752;53.574;9.736;2023-10-13T19:16:45;18.15;;;5.47;;
51489;SDS011;57752;53.574;9.736;2023-10-13T19:21:46;17.42;;;5.80;;
51489;SDS011;57752;53.574;9.736;2023-10-13T19:26:46;20.48;;;5.75;;
51489;SDS011;57752;53.574;9.736;2023-10-13T19:31:46;14.02;;;5.40;;
51489;SDS011;57752;53.574;9.736;2023-10-13T19:36:46;15.60;;;6.20;;
51489;SDS011;57752;53.574;9.736;2023-10-13T19:41:46;20.73;;;6.65;;
51489;SDS011;57752;53.574;9.736;2023-10-13T19:46:47;19.25;;;7.13;;
51489;SDS011;57752;53.574;9.736;2023-10-13T19:51:47;19.77;;;6.75;;
51489;SDS011;57752;53.574;9.736;2023-10-13T19:56:48;22.52;;;7.07;;
51489;SDS011;57752;53.574;9.736;2023-10-13T20:01:48;22.95;;;7.75;;
51489;SDS011;57752;53.574;9.736;2023-10-13T20:06:49;20.77;;;7.20;;
51489;SDS011;57752;53.574;9.736;2023-10-13T20:11:54;21.92;;;7.45;;
51489;SDS011;57752;53.574;9.736;2023-10-13T20:16:57;20.65;;;7.10;;
51489;SDS011;57752;53.574;9.736;2023-10-13T20:21:57;22.15;;;7.30;;
51489;SDS011;57752;53.574;9.736;2023-10-13T20:26:57;28.60;;;7.10;;
51489;SDS011;57752;53.574;9.736;2023-10-13T20:31:57;20.83;;;7.03;;
51489;SDS011;57752;53.574;9.736;2023-10-13T20:36:59;17.87;;;7.07;;
51489;SDS011;57752;53.574;9.736;2023-10-13T20:41:59;17.73;;;6.53;;
51489;SDS011;57752;53.574;9.736;2023-10-13T20:47:04;18.52;;;6.20;;
51489;SDS011;57752;53.574;9.736;2023-10-13T20:52:06;16.25;;;6.53;;
51489;SDS011;57752;53.574;9.736;2023-10-13T20:57:07;16.30;;;5.85;;
51489;SDS011;57752;53.574;9.736;2023-10-13T21:02:10;16.95;;;6.05;;
51489;SDS011;57752;53.574;9.736;2023-10-13T21:07:13;14.57;;;5.68;;
51489;SDS011;57752;53.574;9.736;2023-10-13T21:12:18;16.20;;;5.53;;
51489;SDS011;57752;53.574;9.736;2023-10-13T21:17:18;16.40;;;5.68;;
51489;SDS011;57752;53.574;9.736;2023-10-13T21:27:21;15.68;;;5.95;;
51489;SDS011;57752;53.574;9.736;2023-10-13T21:32:24;15.13;;;6.53;;
51489;SDS011;57752;53.574;9.736;2023-10-13T21:37:24;14.35;;;5.75;;
51489;SDS011;57752;53.574;9.736;2023-10-13T21:42:25;12.88;;;4.97;;
51489;SDS011;57752;53.574;9.736;2023-10-13T21:47:25;13.35;;;4.80;;
51489;SDS011;57752;53.574;9.736;2023-10-13T21:52:25;15.80;;;4.72;;
51489;SDS011;57752;53.574;9.736;2023-10-13T21:57:25;13.73;;;5.00;;
51489;SDS011;57752;53.574;9.736;2023-10-13T22:02:25;13.60;;;5.43;;
51489;SDS011;57752;53.574;9.736;2023-10-13T22:07:26;16.10;;;5.47;;
51489;SDS011;57752;53.574;9.736;2023-10-13T22:12:26;14.60;;;6.65;;
51489;SDS011;57752;53.574;9.736;2023-10-13T22:17:26;16.08;;;6.57;;
51489;SDS011;57752;53.574;9.736;2023-10-13T22:22:26;19.02;;;7.43;;
51489;SDS011;57752;53.574;9.736;2023-10-13T22:27:26;19.30;;;8.88;;
51489;SDS011;57752;53.574;9.736;2023-10-13T22:32:27;17.30;;;8.15;;
51489;SDS011;57752;53.574;9.736;2023-10-13T22:37:29;21.83;;;8.60;;
51489;SDS011;57752;53.574;9.736;2023-10-13T22:42:29;19.73;;;9.52;;
51489;SDS011;57752;53.574;9.736;2023-10-13T22:47:29;19.88;;;9.55;;
51489;SDS011;57752;53.574;9.736;2023-10-13T22:52:29;22.70;;;10.73;;
51489;SDS011;57752;53.574;9.736;2023-10-13T22:57:30;22.95;;;10.35;;
51489;SDS011;57752;53.574;9.736;2023-10-13T23:02:31;23.45;;;11.13;;
51489;SDS011;57752;53.574;9.736;2023-10-13T23:07:31;26.30;;;11.30;;
51489;SDS011;57752;53.574;9.736;2023-10-13T23:12:33;30.30;;;11.83;;
51489;SDS011;57752;53.574;9.736;2023-10-13T23:17:33;23.75;;;11.05;;
51489;SDS011;57752;53.574;9.736;2023-10-13T23:22:33;22.10;;;11.38;;
51489;SDS011;57752;53.574;9.736;2023-10-13T23:27:34;27.25;;;13.38;;
51489;SDS011;57752;53.574;9.736;2023-10-13T23:32:36;29.90;;;13.13;;
51489;SDS011;57752;53.574;9.736;2023-10-13T23:37:36;21.45;;;10.98;;
51489;SDS011;57752;53.574;9.736;2023-10-13T23:42:42;22.25;;;11.18;;
51489;SDS011;57752;53.574;9.736;2023-10-13T23:47:54;22.85;;;11.63;;
51489;SDS011;57752;53.574;9.736;2023-10-13T23:52:58;14.77;;;5.00;;
51489;SDS011;57752;53.574;9.736;2023-10-13T23:57:59;8.20;;;2.15;;
